sensor_id;sensor_type;location;lat;lon;timestamp;P1;durP1;ratioP1;P2;durP2;ratioP2
12425;SDS011;6277;49.824;9.562;2022-11-20T00:00:50;17.85;;;11.95;;
12425;SDS011;6277;49.824;9.562;2022-11-20T00:03:15;17.40;;;11.70;;
12425;SDS011;6277;49.824;9.562;2022-11-20T00:05:42;19.38;;;12.40;;
12425;SDS011;6277;49.824;9.562;2022-11-20T00:08:08;20.52;;;12.95;;
12425;SDS011;6277;49.824;9.562;2022-11-20T00:10:35;19.15;;;12.90;;
12425;SDS011;6277;49.824;9.562;2022-11-20T00:13:02;19.73;;;13.30;;
12425;SDS011;6277;49.824;9.562;2022-11-20T00:15:27;19.30;;;12.70;;
12425;SDS011;6277;49.824;9.562;2022-11-20T00:17:53;22.30;;;14.02;;
12425;SDS011;6277;49.824;9.562;2022-11-20T00:20:19;19.33;;;12.73;;
12425;SDS011;6277;49.824;9.562;2022-11-20T00:22:44;19.45;;;12.77;;
12425;SDS011;6277;49.824;9.562;2022-11-20T00:25:10;19.02;;;12.45;;
12425;SDS011;6277;49.824;9.562;2022-11-20T00:27:36;20.83;;;12.75;;
12425;SDS011;6277;49.824;9.562;2022-11-20T00:30:02;19.45;;;13.20;;
12425;SDS011;6277;49.824;9.562;2022-11-20T00:32:29;17.58;;;12.13;;
12425;SDS011;6277;49.824;9.562;2022-11-20T00:34:55;21.13;;;13.40;;
12425;SDS011;6277;49.824;9.562;2022-11-20T00:37:20;19.90;;;13.15;;
12425;SDS011;6277;49.824;9.562;2022-11-20T00:39:46;21.25;;;13.45;;
12425;SDS011;6277;49.824;9.562;2022-11-20T00:42:11;20.48;;;12.45;;
12425;SDS011;6277;49.824;9.562;2022-11-20T00:44:37;19.00;;;12.60;;
12425;SDS011;6277;49.824;9.562;2022-11-20T00:47:02;19.33;;;12.68;;
12425;SDS011;6277;49.824;9.562;2022-11-20T00:49:28;21.00;;;13.10;;
12425;SDS011;6277;49.824;9.562;2022-11-20T00:51:53;22.80;;;13.90;;
12425;SDS011;6277;49.824;9.562;2022-11-20T00:54:19;20.13;;;13.60;;
12425;SDS011;6277;49.824;9.562;2022-11-20T00:56:44;20.77;;;13.25;;
12425;SDS011;6277;49.824;9.562;2022-11-20T00:59:10;20.33;;;12.68;;
12425;SDS011;6277;49.824;9.562;2022-11-20T01:01:36;20.55;;;13.25;;
12425;SDS011;6277;49.824;9.562;2022-11-20T01:04:02;23.50;;;14.18;;
12425;SDS011;6277;49.824;9.562;2022-11-20T01:06:31;21.60;;;12.77;;
12425;SDS011;6277;49.824;9.562;2022-11-20T01:09:00;19.58;;;12.55;;
12425;SDS011;6277;49.824;9.562;2022-11-20T01:11:37;19.27;;;12.27;;
12425;SDS011;6277;49.824;9.562;2022-11-20T01:14:05;19.15;;;12.90;;
12425;SDS011;6277;49.824;9.562;2022-11-20T01:16:33;18.45;;;12.32;;
12425;SDS011;6277;49.824;9.562;2022-11-20T01:19:02;20.48;;;13.15;;
12425;SDS011;6277;49.824;9.562;2022-11-20T01:23:55;20.02;;;12.93;;
12425;SDS011;6277;49.824;9.562;2022-11-20T01:26:23;20.75;;;12.48;;
12425;SDS011;6277;49.824;9.562;2022-11-20T01:28:50;18.67;;;12.45;;
12425;SDS011;6277;49.824;9.562;2022-11-20T01:31:17;20.35;;;12.93;;
12425;SDS011;6277;49.824;9.562;2022-11-20T01:33:45;19.00;;;12.32;;
12425;SDS011;6277;49.824;9.562;2022-11-20T01:36:12;19.33;;;12.90;;
12425;SDS011;6277;49.824;9.562;2022-11-20T01:38:39;20.00;;;12.93;;
12425;SDS011;6277;49.824;9.562;2022-11-20T01:41:05;20.05;;;12.32;;
12425;SDS011;6277;49.824;9.562;2022-11-20T01:43:32;20.58;;;13.20;;
12425;SDS011;6277;49.824;9.562;2022-11-20T01:48:49;20.13;;;13.43;;
12425;SDS011;6277;49.824;9.562;2022-11-20T01:53:54;21.58;;;13.15;;
12425;SDS011;6277;49.824;9.562;2022-11-20T01:56:23;19.17;;;12.52;;
12425;SDS011;6277;49.824;9.562;2022-11-20T01:58:53;19.20;;;12.25;;
12425;SDS011;6277;49.824;9.562;2022-11-20T02:01:21;18.45;;;12.10;;
12425;SDS011;6277;49.824;9.562;2022-11-20T02:03:47;20.20;;;13.00;;
12425;SDS011;6277;49.824;9.562;2022-11-20T02:06:24;19.75;;;12.70;;
12425;SDS011;6277;49.824;9.562;2022-11-20T02:08:52;20.48;;;12.90;;
12425;SDS011;6277;49.824;9.562;2022-11-20T02:11:19;19.70;;;13.38;;
12425;SDS011;6277;49.824;9.562;2022-11-20T02:13:45;21.20;;;12.73;;
12425;SDS011;6277;49.824;9.562;2022-11-20T02:16:13;20.30;;;13.20;;
12425;SDS011;6277;49.824;9.562;2022-11-20T02:18:50;20.38;;;13.15;;
12425;SDS011;6277;49.824;9.562;2022-11-20T02:24:11;21.15;;;13.13;;
12425;SDS011;6277;49.824;9.562;2022-11-20T02:27:01;18.92;;;12.32;;
12425;SDS011;6277;49.824;9.562;2022-11-20T02:29:36;20.00;;;12.18;;
12425;SDS011;6277;49.824;9.562;2022-11-20T02:32:21;18.83;;;12.35;;
12425;SDS011;6277;49.824;9.562;2022-11-20T02:34:49;20.60;;;12.85;;
12425;SDS011;6277;49.824;9.562;2022-11-20T02:37:14;19.63;;;12.73;;
12425;SDS011;6277;49.824;9.562;2022-11-20T02:39:41;19.67;;;12.77;;
12425;SDS011;6277;49.824;9.562;2022-11-20T02:42:08;19.88;;;13.30;;
12425;SDS011;6277;49.824;9.562;2022-11-20T02:44:33;20.23;;;13.10;;
12425;SDS011;6277;49.824;9.562;2022-11-20T02:46:59;20.48;;;13.40;;
12425;SDS011;6277;49.824;9.562;2022-11-20T02:49:25;19.30;;;12.80;;
12425;SDS011;6277;49.824;9.562;2022-11-20T02:51:50;21.67;;;13.68;;
12425;SDS011;6277;49.824;9.562;2022-11-20T02:54:16;22.52;;;13.45;;
12425;SDS011;6277;49.824;9.562;2022-11-20T02:56:42;20.65;;;13.23;;
12425;SDS011;6277;49.824;9.562;2022-11-20T02:59:08;23.27;;;14.25;;
12425;SDS011;6277;49.824;9.562;2022-11-20T03:01:34;20.98;;;13.30;;
12425;SDS011;6277;49.824;9.562;2022-11-20T03:04:00;21.33;;;13.48;;
12425;SDS011;6277;49.824;9.562;2022-11-20T03:06:25;18.70;;;13.13;;
12425;SDS011;6277;49.824;9.562;2022-11-20T03:08:51;20.10;;;12.63;;
12425;SDS011;6277;49.824;9.562;2022-11-20T03:11:16;21.08;;;13.35;;
12425;SDS011;6277;49.824;9.562;2022-11-20T03:13:42;20.48;;;13.15;;
12425;SDS011;6277;49.824;9.562;2022-11-20T03:16:08;20.05;;;13.05;;
12425;SDS011;6277;49.824;9.562;2022-11-20T03:18:40;21.88;;;13.32;;
12425;SDS011;6277;49.824;9.562;2022-11-20T03:21:06;18.80;;;11.93;;
12425;SDS011;6277;49.824;9.562;2022-11-20T03:23:33;20.00;;;13.25;;
12425;SDS011;6277;49.824;9.562;2022-11-20T03:26:09;19.23;;;13.00;;
12425;SDS011;6277;49.824;9.562;2022-11-20T03:28:36;20.05;;;11.95;;
12425;SDS011;6277;49.824;9.562;2022-11-20T03:31:21;19.95;;;13.25;;
12425;SDS011;6277;49.824;9.562;2022-11-20T03:33:49;21.90;;;13.27;;
12425;SDS011;6277;49.824;9.562;2022-11-20T03:36:15;20.27;;;12.77;;
12425;SDS011;6277;49.824;9.562;2022-11-20T03:38:43;22.80;;;13.63;;
12425;SDS011;6277;49.824;9.562;2022-11-20T03:41:10;19.50;;;12.50;;
12425;SDS011;6277;49.824;9.562;2022-11-20T03:43:50;18.35;;;11.57;;
12425;SDS011;6277;49.824;9.562;2022-11-20T03:46:26;20.40;;;13.35;;
12425;SDS011;6277;49.824;9.562;2022-11-20T03:48:53;20.35;;;13.20;;
12425;SDS011;6277;49.824;9.562;2022-11-20T03:51:23;16.50;;;11.00;;
12425;SDS011;6277;49.824;9.562;2022-11-20T03:53:50;22.05;;;13.82;;
12425;SDS011;6277;49.824;9.562;2022-11-20T03:56:17;19.92;;;12.50;;
12425;SDS011;6277;49.824;9.562;2022-11-20T03:58:44;17.90;;;11.70;;
12425;SDS011;6277;49.824;9.562;2022-11-20T04:01:11;17.58;;;11.43;;
12425;SDS011;6277;49.824;9.562;2022-11-20T04:03:39;18.90;;;12.32;;
12425;SDS011;6277;49.824;9.562;2022-11-20T04:06:06;21.52;;;12.85;;
12425;SDS011;6277;49.824;9.562;2022-11-20T04:08:37;19.42;;;12.38;;
12425;SDS011;6277;49.824;9.562;2022-11-20T04:11:16;17.50;;;11.43;;
12425;SDS011;6277;49.824;9.562;2022-11-20T04:13:50;18.88;;;12.30;;
12425;SDS011;6277;49.824;9.562;2022-11-20T04:16:17;17.52;;;11.93;;
12425;SDS011;6277;49.824;9.562;2022-11-20T04:18:44;18.02;;;11.50;;
12425;SDS011;6277;49.824;9.562;2022-11-20T04:21:10;16.60;;;11.27;;
12425;SDS011;6277;49.824;9.562;2022-11-20T04:23:36;18.23;;;12.07;;
12425;SDS011;6277;49.824;9.562;2022-11-20T04:26:07;17.88;;;11.90;;
12425;SDS011;6277;49.824;9.562;2022-11-20T04:28:34;17.23;;;10.30;;
12425;SDS011;6277;49.824;9.562;2022-11-20T04:31:07;16.23;;;10.63;;
12425;SDS011;6277;49.824;9.562;2022-11-20T04:33:34;14.88;;;9.85;;
12425;SDS011;6277;49.824;9.562;2022-11-20T04:36:01;17.08;;;10.93;;
12425;SDS011;6277;49.824;9.562;2022-11-20T04:38:28;15.57;;;10.68;;
12425;SDS011;6277;49.824;9.562;2022-11-20T04:40:57;16.60;;;10.48;;
12425;SDS011;6277;49.824;9.562;2022-11-20T04:43:27;17.40;;;11.30;;
12425;SDS011;6277;49.824;9.562;2022-11-20T04:45:54;15.68;;;10.55;;
12425;SDS011;6277;49.824;9.562;2022-11-20T04:48:20;12.65;;;8.65;;
12425;SDS011;6277;49.824;9.562;2022-11-20T04:50:46;15.15;;;9.95;;
12425;SDS011;6277;49.824;9.562;2022-11-20T04:53:12;15.60;;;10.30;;
12425;SDS011;6277;49.824;9.562;2022-11-20T04:55:38;13.90;;;9.30;;
12425;SDS011;6277;49.824;9.562;2022-11-20T04:58:03;14.10;;;9.95;;
12425;SDS011;6277;49.824;9.562;2022-11-20T05:00:29;14.98;;;10.00;;
12425;SDS011;6277;49.824;9.562;2022-11-20T05:02:54;14.43;;;10.00;;
12425;SDS011;6277;49.824;9.562;2022-11-20T05:05:20;16.08;;;10.02;;
12425;SDS011;6277;49.824;9.562;2022-11-20T05:07:45;17.77;;;11.43;;
12425;SDS011;6277;49.824;9.562;2022-11-20T05:10:11;15.13;;;10.18;;
12425;SDS011;6277;49.824;9.562;2022-11-20T05:12:36;17.88;;;11.30;;
12425;SDS011;6277;49.824;9.562;2022-11-20T05:15:02;16.83;;;10.77;;
12425;SDS011;6277;49.824;9.562;2022-11-20T05:17:28;15.25;;;10.15;;
12425;SDS011;6277;49.824;9.562;2022-11-20T05:19:53;16.85;;;10.93;;
12425;SDS011;6277;49.824;9.562;2022-11-20T05:22:19;16.58;;;10.93;;
12425;SDS011;6277;49.824;9.562;2022-11-20T05:24:44;19.05;;;11.70;;
12425;SDS011;6277;49.824;9.562;2022-11-20T05:27:10;17.08;;;11.32;;
12425;SDS011;6277;49.824;9.562;2022-11-20T05:29:35;16.80;;;11.43;;
12425;SDS011;6277;49.824;9.562;2022-11-20T05:32:01;17.23;;;11.60;;
12425;SDS011;6277;49.824;9.562;2022-11-20T05:34:26;16.75;;;10.40;;
12425;SDS011;6277;49.824;9.562;2022-11-20T05:36:52;18.92;;;11.57;;
12425;SDS011;6277;49.824;9.562;2022-11-20T05:39:17;17.65;;;11.85;;
12425;SDS011;6277;49.824;9.562;2022-11-20T05:41:43;17.30;;;11.35;;
12425;SDS011;6277;49.824;9.562;2022-11-20T05:44:11;19.75;;;11.60;;
12425;SDS011;6277;49.824;9.562;2022-11-20T05:46:37;19.58;;;11.65;;
12425;SDS011;6277;49.824;9.562;2022-11-20T05:49:03;17.35;;;11.48;;
12425;SDS011;6277;49.824;9.562;2022-11-20T05:51:28;17.35;;;11.48;;
12425;SDS011;6277;49.824;9.562;2022-11-20T05:53:55;17.05;;;11.57;;
12425;SDS011;6277;49.824;9.562;2022-11-20T05:56:21;19.02;;;12.15;;
12425;SDS011;6277;49.824;9.562;2022-11-20T05:58:48;19.25;;;12.55;;
12425;SDS011;6277;49.824;9.562;2022-11-20T06:03:47;16.23;;;10.38;;
12425;SDS011;6277;49.824;9.562;2022-11-20T06:06:15;18.17;;;11.68;;
12425;SDS011;6277;49.824;9.562;2022-11-20T06:08:42;18.77;;;12.07;;
12425;SDS011;6277;49.824;9.562;2022-11-20T06:11:09;20.15;;;13.07;;
12425;SDS011;6277;49.824;9.562;2022-11-20T06:13:37;20.42;;;12.70;;
12425;SDS011;6277;49.824;9.562;2022-11-20T06:16:03;19.98;;;12.13;;
12425;SDS011;6277;49.824;9.562;2022-11-20T06:18:29;19.98;;;11.90;;
12425;SDS011;6277;49.824;9.562;2022-11-20T06:20:59;19.70;;;12.25;;
12425;SDS011;6277;49.824;9.562;2022-11-20T06:23:25;20.73;;;12.93;;
12425;SDS011;6277;49.824;9.562;2022-11-20T06:25:53;19.85;;;12.32;;
12425;SDS011;6277;49.824;9.562;2022-11-20T06:28:19;21.02;;;12.88;;
12425;SDS011;6277;49.824;9.562;2022-11-20T06:30:44;19.25;;;12.02;;
12425;SDS011;6277;49.824;9.562;2022-11-20T06:33:10;19.65;;;12.40;;
12425;SDS011;6277;49.824;9.562;2022-11-20T06:35:36;22.02;;;13.57;;
12425;SDS011;6277;49.824;9.562;2022-11-20T06:38:01;24.20;;;13.35;;
12425;SDS011;6277;49.824;9.562;2022-11-20T06:40:27;20.15;;;12.13;;
12425;SDS011;6277;49.824;9.562;2022-11-20T06:42:53;21.08;;;12.63;;
12425;SDS011;6277;49.824;9.562;2022-11-20T06:45:19;21.33;;;12.77;;
12425;SDS011;6277;49.824;9.562;2022-11-20T06:47:45;23.13;;;13.65;;
12425;SDS011;6277;49.824;9.562;2022-11-20T06:50:11;24.45;;;13.43;;
12425;SDS011;6277;49.824;9.562;2022-11-20T06:52:36;23.45;;;13.45;;
12425;SDS011;6277;49.824;9.562;2022-11-20T06:55:02;22.52;;;13.82;;
12425;SDS011;6277;49.824;9.562;2022-11-20T06:57:28;23.33;;;13.57;;
12425;SDS011;6277;49.824;9.562;2022-11-20T06:59:53;20.23;;;12.32;;
12425;SDS011;6277;49.824;9.562;2022-11-20T07:02:19;20.25;;;12.32;;
12425;SDS011;6277;49.824;9.562;2022-11-20T07:04:44;20.55;;;12.70;;
12425;SDS011;6277;49.824;9.562;2022-11-20T07:07:10;22.50;;;13.77;;
12425;SDS011;6277;49.824;9.562;2022-11-20T07:09:35;21.85;;;13.25;;
12425;SDS011;6277;49.824;9.562;2022-11-20T07:12:01;23.55;;;14.07;;
12425;SDS011;6277;49.824;9.562;2022-11-20T07:14:26;21.38;;;13.02;;
12425;SDS011;6277;49.824;9.562;2022-11-20T07:16:52;23.17;;;13.32;;
12425;SDS011;6277;49.824;9.562;2022-11-20T07:19:17;24.25;;;14.45;;
12425;SDS011;6277;49.824;9.562;2022-11-20T07:21:43;24.92;;;14.30;;
12425;SDS011;6277;49.824;9.562;2022-11-20T07:24:08;23.98;;;14.30;;
12425;SDS011;6277;49.824;9.562;2022-11-20T07:26:34;23.92;;;14.13;;
12425;SDS011;6277;49.824;9.562;2022-11-20T07:29:00;19.92;;;12.60;;
12425;SDS011;6277;49.824;9.562;2022-11-20T07:31:25;21.83;;;12.90;;
12425;SDS011;6277;49.824;9.562;2022-11-20T07:33:51;18.55;;;11.57;;
12425;SDS011;6277;49.824;9.562;2022-11-20T07:36:16;17.70;;;10.75;;
12425;SDS011;6277;49.824;9.562;2022-11-20T07:38:42;17.85;;;10.88;;
12425;SDS011;6277;49.824;9.562;2022-11-20T07:41:07;17.63;;;10.23;;
12425;SDS011;6277;49.824;9.562;2022-11-20T07:43:33;16.50;;;10.30;;
12425;SDS011;6277;49.824;9.562;2022-11-20T07:45:58;15.20;;;9.30;;
12425;SDS011;6277;49.824;9.562;2022-11-20T07:48:24;14.32;;;8.60;;
12425;SDS011;6277;49.824;9.562;2022-11-20T07:50:56;15.65;;;9.38;;
12425;SDS011;6277;49.824;9.562;2022-11-20T07:53:22;15.48;;;9.68;;
12425;SDS011;6277;49.824;9.562;2022-11-20T07:55:48;15.80;;;9.98;;
12425;SDS011;6277;49.824;9.562;2022-11-20T07:58:13;15.77;;;9.50;;
12425;SDS011;6277;49.824;9.562;2022-11-20T08:00:40;16.95;;;10.10;;
12425;SDS011;6277;49.824;9.562;2022-11-20T08:03:06;16.15;;;10.40;;
12425;SDS011;6277;49.824;9.562;2022-11-20T08:05:31;15.35;;;9.35;;
12425;SDS011;6277;49.824;9.562;2022-11-20T08:07:57;13.60;;;8.65;;
12425;SDS011;6277;49.824;9.562;2022-11-20T08:10:23;17.77;;;10.13;;
12425;SDS011;6277;49.824;9.562;2022-11-20T08:12:49;20.88;;;10.88;;
12425;SDS011;6277;49.824;9.562;2022-11-20T08:15:34;40.55;;;14.65;;
12425;SDS011;6277;49.824;9.562;2022-11-20T08:18:01;28.02;;;12.85;;
12425;SDS011;6277;49.824;9.562;2022-11-20T08:20:31;19.63;;;11.48;;
12425;SDS011;6277;49.824;9.562;2022-11-20T08:22:58;18.15;;;10.80;;
12425;SDS011;6277;49.824;9.562;2022-11-20T08:25:29;17.00;;;10.45;;
12425;SDS011;6277;49.824;9.562;2022-11-20T08:27:56;80.57;;;20.75;;
12425;SDS011;6277;49.824;9.562;2022-11-20T08:30:23;43.13;;;17.20;;
12425;SDS011;6277;49.824;9.562;2022-11-20T08:32:49;39.28;;;14.52;;
12425;SDS011;6277;49.824;9.562;2022-11-20T08:35:14;34.28;;;13.68;;
12425;SDS011;6277;49.824;9.562;2022-11-20T08:37:40;26.63;;;12.57;;
12425;SDS011;6277;49.824;9.562;2022-11-20T08:40:07;29.08;;;12.95;;
12425;SDS011;6277;49.824;9.562;2022-11-20T08:42:36;20.55;;;11.45;;
12425;SDS011;6277;49.824;9.562;2022-11-20T08:45:02;18.83;;;11.05;;
12425;SDS011;6277;49.824;9.562;2022-11-20T08:47:28;27.92;;;12.40;;
12425;SDS011;6277;49.824;9.562;2022-11-20T08:49:53;19.60;;;10.60;;
12425;SDS011;6277;49.824;9.562;2022-11-20T08:52:19;16.77;;;9.30;;
12425;SDS011;6277;49.824;9.562;2022-11-20T08:54:44;16.23;;;9.95;;
12425;SDS011;6277;49.824;9.562;2022-11-20T08:57:10;13.45;;;8.48;;
12425;SDS011;6277;49.824;9.562;2022-11-20T08:59:35;15.15;;;9.40;;
12425;SDS011;6277;49.824;9.562;2022-11-20T09:02:01;19.70;;;9.52;;
12425;SDS011;6277;49.824;9.562;2022-11-20T09:04:27;16.25;;;10.50;;
12425;SDS011;6277;49.824;9.562;2022-11-20T09:06:52;17.85;;;9.98;;
12425;SDS011;6277;49.824;9.562;2022-11-20T09:09:18;16.15;;;10.48;;
12425;SDS011;6277;49.824;9.562;2022-11-20T09:11:43;16.45;;;9.82;;
12425;SDS011;6277;49.824;9.562;2022-11-20T09:14:09;14.60;;;8.90;;
12425;SDS011;6277;49.824;9.562;2022-11-20T09:16:35;16.08;;;10.05;;
12425;SDS011;6277;49.824;9.562;2022-11-20T09:19:00;14.70;;;9.48;;
12425;SDS011;6277;49.824;9.562;2022-11-20T09:21:26;14.60;;;9.18;;
12425;SDS011;6277;49.824;9.562;2022-11-20T09:23:52;13.45;;;8.73;;
12425;SDS011;6277;49.824;9.562;2022-11-20T09:26:17;14.85;;;9.65;;
12425;SDS011;6277;49.824;9.562;2022-11-20T09:28:43;14.40;;;9.30;;
12425;SDS011;6277;49.824;9.562;2022-11-20T09:31:09;16.52;;;10.55;;
12425;SDS011;6277;49.824;9.562;2022-11-20T09:33:57;21.33;;;11.07;;
12425;SDS011;6277;49.824;9.562;2022-11-20T09:36:22;15.55;;;9.40;;
12425;SDS011;6277;49.824;9.562;2022-11-20T09:38:48;13.63;;;9.00;;
12425;SDS011;6277;49.824;9.562;2022-11-20T09:41:19;15.52;;;9.00;;
12425;SDS011;6277;49.824;9.562;2022-11-20T09:44:11;14.30;;;8.65;;
12425;SDS011;6277;49.824;9.562;2022-11-20T09:49:32;12.05;;;7.47;;
12425;SDS011;6277;49.824;9.562;2022-11-20T09:54:57;9.43;;;6.60;;
12425;SDS011;6277;49.824;9.562;2022-11-20T09:57:28;8.80;;;6.00;;
12425;SDS011;6277;49.824;9.562;2022-11-20T10:00:00;8.95;;;6.43;;
12425;SDS011;6277;49.824;9.562;2022-11-20T10:02:30;9.65;;;6.38;;
12425;SDS011;6277;49.824;9.562;2022-11-20T10:05:04;10.03;;;6.70;;
12425;SDS011;6277;49.824;9.562;2022-11-20T10:10:40;10.25;;;6.93;;
12425;SDS011;6277;49.824;9.562;2022-11-20T10:16:18;9.93;;;6.28;;
12425;SDS011;6277;49.824;9.562;2022-11-20T10:19:05;9.98;;;6.70;;
12425;SDS011;6277;49.824;9.562;2022-11-20T10:22:04;10.52;;;6.75;;
12425;SDS011;6277;49.824;9.562;2022-11-20T10:27:23;11.55;;;6.70;;
12425;SDS011;6277;49.824;9.562;2022-11-20T10:37:41;9.52;;;5.95;;
12425;SDS011;6277;49.824;9.562;2022-11-20T10:40:27;8.80;;;5.35;;
12425;SDS011;6277;49.824;9.562;2022-11-20T10:43:12;7.00;;;4.80;;
12425;SDS011;6277;49.824;9.562;2022-11-20T10:48:15;6.13;;;4.13;;
12425;SDS011;6277;49.824;9.562;2022-11-20T10:50:54;5.38;;;4.10;;
12425;SDS011;6277;49.824;9.562;2022-11-20T10:53:44;6.88;;;4.68;;
12425;SDS011;6277;49.824;9.562;2022-11-20T10:58:55;8.27;;;5.40;;
12425;SDS011;6277;49.824;9.562;2022-11-20T11:01:29;7.53;;;4.90;;
12425;SDS011;6277;49.824;9.562;2022-11-20T11:03:55;6.95;;;4.53;;
12425;SDS011;6277;49.824;9.562;2022-11-20T11:06:25;6.88;;;4.97;;
12425;SDS011;6277;49.824;9.562;2022-11-20T11:09:01;7.20;;;4.97;;
12425;SDS011;6277;49.824;9.562;2022-11-20T11:11:33;7.60;;;5.38;;
12425;SDS011;6277;49.824;9.562;2022-11-20T11:14:10;9.55;;;6.15;;
12425;SDS011;6277;49.824;9.562;2022-11-20T11:16:48;10.57;;;6.13;;
12425;SDS011;6277;49.824;9.562;2022-11-20T11:19:14;8.65;;;6.00;;
12425;SDS011;6277;49.824;9.562;2022-11-20T11:21:50;9.95;;;6.55;;
12425;SDS011;6277;49.824;9.562;2022-11-20T11:24:22;13.05;;;8.63;;
12425;SDS011;6277;49.824;9.562;2022-11-20T11:26:55;16.48;;;10.02;;
12425;SDS011;6277;49.824;9.562;2022-11-20T11:29:23;15.20;;;9.57;;
12425;SDS011;6277;49.824;9.562;2022-11-20T11:31:51;18.10;;;10.38;;
12425;SDS011;6277;49.824;9.562;2022-11-20T11:34:29;15.20;;;9.45;;
12425;SDS011;6277;49.824;9.562;2022-11-20T11:36:58;13.57;;;8.57;;
12425;SDS011;6277;49.824;9.562;2022-11-20T11:39:25;14.68;;;8.90;;
12425;SDS011;6277;49.824;9.562;2022-11-20T11:41:53;11.82;;;7.93;;
12425;SDS011;6277;49.824;9.562;2022-11-20T11:44:30;11.82;;;7.65;;
12425;SDS011;6277;49.824;9.562;2022-11-20T11:47:26;10.88;;;7.20;;
12425;SDS011;6277;49.824;9.562;2022-11-20T11:58:06;8.23;;;6.22;;
12425;SDS011;6277;49.824;9.562;2022-11-20T12:01:17;8.02;;;5.75;;
12425;SDS011;6277;49.824;9.562;2022-11-20T12:06:46;7.57;;;5.35;;
12425;SDS011;6277;49.824;9.562;2022-11-20T12:09:16;7.18;;;4.93;;
12425;SDS011;6277;49.824;9.562;2022-11-20T12:11:51;9.48;;;5.90;;
12425;SDS011;6277;49.824;9.562;2022-11-20T12:16:58;7.00;;;5.32;;
12425;SDS011;6277;49.824;9.562;2022-11-20T12:19:25;7.05;;;4.93;;
12425;SDS011;6277;49.824;9.562;2022-11-20T12:22:02;7.45;;;4.97;;
12425;SDS011;6277;49.824;9.562;2022-11-20T12:30:11;5.50;;;4.38;;
12425;SDS011;6277;49.824;9.562;2022-11-20T12:36:39;6.18;;;4.57;;
12425;SDS011;6277;49.824;9.562;2022-11-20T12:38:49;6.35;;;4.25;;
12425;SDS011;6277;49.824;9.562;2022-11-20T12:50:31;4.50;;;3.15;;
12425;SDS011;6277;49.824;9.562;2022-11-20T12:53:33;5.28;;;4.00;;
12425;SDS011;6277;49.824;9.562;2022-11-20T12:56:21;4.25;;;3.50;;
12425;SDS011;6277;49.824;9.562;2022-11-20T12:59:01;5.38;;;3.70;;
12425;SDS011;6277;49.824;9.562;2022-11-20T13:04:28;4.38;;;3.42;;
12425;SDS011;6277;49.824;9.562;2022-11-20T13:07:07;4.88;;;3.60;;
12425;SDS011;6277;49.824;9.562;2022-11-20T13:09:39;4.38;;;3.28;;
12425;SDS011;6277;49.824;9.562;2022-11-20T13:18:07;3.83;;;2.97;;
12425;SDS011;6277;49.824;9.562;2022-11-20T13:20:35;4.40;;;3.20;;
12425;SDS011;6277;49.824;9.562;2022-11-20T13:23:05;4.05;;;2.90;;
12425;SDS011;6277;49.824;9.562;2022-11-20T13:25:32;3.60;;;2.83;;
12425;SDS011;6277;49.824;9.562;2022-11-20T13:28:05;4.70;;;3.72;;
12425;SDS011;6277;49.824;9.562;2022-11-20T13:30:51;3.65;;;2.67;;
12425;SDS011;6277;49.824;9.562;2022-11-20T13:35:59;4.35;;;3.35;;
12425;SDS011;6277;49.824;9.562;2022-11-20T13:38:26;5.25;;;3.10;;
12425;SDS011;6277;49.824;9.562;2022-11-20T13:41:02;4.28;;;3.15;;
12425;SDS011;6277;49.824;9.562;2022-11-20T13:43:47;4.35;;;3.33;;
12425;SDS011;6277;49.824;9.562;2022-11-20T13:46:13;3.55;;;2.83;;
12425;SDS011;6277;49.824;9.562;2022-11-20T13:48:41;2.75;;;2.35;;
12425;SDS011;6277;49.824;9.562;2022-11-20T13:56:34;3.15;;;2.47;;
12425;SDS011;6277;49.824;9.562;2022-11-20T13:59:47;3.40;;;2.70;;
12425;SDS011;6277;49.824;9.562;2022-11-20T14:02:13;3.38;;;2.67;;
12425;SDS011;6277;49.824;9.562;2022-11-20T14:04:42;3.08;;;2.38;;
12425;SDS011;6277;49.824;9.562;2022-11-20T14:07:10;3.28;;;2.53;;
12425;SDS011;6277;49.824;9.562;2022-11-20T14:09:36;3.15;;;2.40;;
12425;SDS011;6277;49.824;9.562;2022-11-20T14:12:03;3.63;;;2.60;;
12425;SDS011;6277;49.824;9.562;2022-11-20T14:14:47;6.00;;;4.00;;
12425;SDS011;6277;49.824;9.562;2022-11-20T14:19:45;5.72;;;3.78;;
12425;SDS011;6277;49.824;9.562;2022-11-20T14:22:20;5.43;;;3.97;;
12425;SDS011;6277;49.824;9.562;2022-11-20T14:24:48;5.53;;;3.65;;
12425;SDS011;6277;49.824;9.562;2022-11-20T14:27:26;7.10;;;4.30;;
12425;SDS011;6277;49.824;9.562;2022-11-20T14:29:51;9.27;;;5.80;;
12425;SDS011;6277;49.824;9.562;2022-11-20T14:32:17;10.75;;;6.70;;
12425;SDS011;6277;49.824;9.562;2022-11-20T14:34:45;11.02;;;7.15;;
12425;SDS011;6277;49.824;9.562;2022-11-20T14:37:17;11.45;;;8.00;;
12425;SDS011;6277;49.824;9.562;2022-11-20T14:39:52;11.57;;;7.95;;
12425;SDS011;6277;49.824;9.562;2022-11-20T14:42:22;10.90;;;6.95;;
12425;SDS011;6277;49.824;9.562;2022-11-20T14:44:50;7.47;;;5.25;;
12425;SDS011;6277;49.824;9.562;2022-11-20T14:47:28;7.85;;;5.85;;
12425;SDS011;6277;49.824;9.562;2022-11-20T14:49:56;7.50;;;5.38;;
12425;SDS011;6277;49.824;9.562;2022-11-20T14:52:23;10.13;;;5.80;;
12425;SDS011;6277;49.824;9.562;2022-11-20T14:54:51;7.85;;;5.35;;
12425;SDS011;6277;49.824;9.562;2022-11-20T14:59:50;6.50;;;4.47;;
12425;SDS011;6277;49.824;9.562;2022-11-20T15:02:29;6.38;;;3.90;;
12425;SDS011;6277;49.824;9.562;2022-11-20T15:04:58;6.43;;;4.88;;
12425;SDS011;6277;49.824;9.562;2022-11-20T15:07:32;7.40;;;5.23;;
12425;SDS011;6277;49.824;9.562;2022-11-20T15:10:03;7.10;;;4.70;;
12425;SDS011;6277;49.824;9.562;2022-11-20T15:12:34;7.15;;;5.10;;
12425;SDS011;6277;49.824;9.562;2022-11-20T15:15:03;7.97;;;5.25;;
12425;SDS011;6277;49.824;9.562;2022-11-20T15:17:30;12.75;;;7.68;;
12425;SDS011;6277;49.824;9.562;2022-11-20T15:19:57;10.45;;;6.85;;
12425;SDS011;6277;49.824;9.562;2022-11-20T15:22:24;9.55;;;6.30;;
12425;SDS011;6277;49.824;9.562;2022-11-20T15:24:50;10.00;;;6.65;;
12425;SDS011;6277;49.824;9.562;2022-11-20T15:27:15;8.98;;;6.18;;
12425;SDS011;6277;49.824;9.562;2022-11-20T15:29:41;9.27;;;6.10;;
12425;SDS011;6277;49.824;9.562;2022-11-20T15:32:07;8.75;;;6.03;;
12425;SDS011;6277;49.824;9.562;2022-11-20T15:34:34;8.52;;;5.57;;
12425;SDS011;6277;49.824;9.562;2022-11-20T15:36:59;9.50;;;5.93;;
12425;SDS011;6277;49.824;9.562;2022-11-20T15:39:25;9.02;;;5.90;;
12425;SDS011;6277;49.824;9.562;2022-11-20T15:41:50;7.93;;;5.22;;
12425;SDS011;6277;49.824;9.562;2022-11-20T15:44:16;7.97;;;5.20;;
12425;SDS011;6277;49.824;9.562;2022-11-20T15:46:41;8.45;;;5.35;;
12425;SDS011;6277;49.824;9.562;2022-11-20T15:49:10;9.82;;;6.20;;
12425;SDS011;6277;49.824;9.562;2022-11-20T15:51:39;8.93;;;5.85;;
12425;SDS011;6277;49.824;9.562;2022-11-20T15:54:19;9.30;;;5.80;;
12425;SDS011;6277;49.824;9.562;2022-11-20T15:56:47;8.07;;;5.45;;
12425;SDS011;6277;49.824;9.562;2022-11-20T15:59:13;9.82;;;6.13;;
12425;SDS011;6277;49.824;9.562;2022-11-20T16:01:41;9.63;;;6.53;;
12425;SDS011;6277;49.824;9.562;2022-11-20T16:04:09;9.10;;;5.97;;
12425;SDS011;6277;49.824;9.562;2022-11-20T16:06:36;9.75;;;6.10;;
12425;SDS011;6277;49.824;9.562;2022-11-20T16:09:02;9.73;;;6.38;;
12425;SDS011;6277;49.824;9.562;2022-11-20T16:11:28;10.35;;;6.32;;
12425;SDS011;6277;49.824;9.562;2022-11-20T16:13:54;11.43;;;7.05;;
12425;SDS011;6277;49.824;9.562;2022-11-20T16:16:38;13.07;;;6.53;;
12425;SDS011;6277;49.824;9.562;2022-11-20T16:19:05;8.70;;;5.32;;
12425;SDS011;6277;49.824;9.562;2022-11-20T16:21:31;11.30;;;6.78;;
12425;SDS011;6277;49.824;9.562;2022-11-20T16:23:57;10.77;;;6.75;;
12425;SDS011;6277;49.824;9.562;2022-11-20T16:26:28;10.15;;;6.38;;
12425;SDS011;6277;49.824;9.562;2022-11-20T16:28:53;10.35;;;6.43;;